Oceanograf 2 — SPG2498 — position and weather

sailwx.info

Track history (hours):
 
Tides and Currents Weather Stations Pressure Air Temp Water Temp Dewpoint Dewpoint Depression Visibility Wind Speed Wind Dir Waves Ship Positions

Oceanographic research ship Oceanograf 2 (Poland)

Detailed information on ship capabilities available from University of Delaware's Ocean Information Center.

Last reported at 2020-Sep-24 07:30 UTC. Time now 2020-Sep-24 08:45 UTC.
Position N 53°26' E 014°36'.

Length 23 m; draft 1.9 m.

Type: Towing. MMSI: 261014410.

Date/timePositionNaut miles runAvg speedWind from/ knotsBaromVisibWave heightAir tempDewpointWater temp
2020-Sep-24 07:30N 53°26' E 014°36'0 0.0
2020-Sep-24 06:30N 53°26' E 014°36'2 2.0
2020-Sep-24 05:30N 53°24' E 014°39'2 0.1
2020-Sep-23 15:00N 53°25' E 014°36'0 0.0
2020-Sep-23 14:00N 53°25' E 014°36'0 0.0
2020-Sep-23 12:00N 53°25' E 014°36'0 0.0
2020-Sep-23 11:00N 53°25' E 014°36'0 0.0
2020-Sep-23 10:30N 53°25' E 014°36'2 0.1
2020-Sep-22 16:31N 53°24' E 014°39'1 2.8
2020-Sep-22 16:00N 53°25' E 014°37'1 1.2
2020-Sep-22 15:30N 53°26' E 014°36'0 0.0
2020-Sep-22 12:00N 53°25' E 014°36'0 0.0
2020-Sep-22 11:00N 53°25' E 014°36'0 0.0
2020-Sep-22 10:00N 53°26' E 014°36'1 0.5
2020-Sep-22 08:00N 53°26' E 014°36'0 1.0
2020-Sep-22 07:30N 53°27' E 014°36'0 0.0
2020-Sep-22 07:00N 53°27' E 014°36'4 0.3
2020-Sep-21 17:30N 53°24' E 014°38'1 0.5
2020-Sep-21 16:00N 53°25' E 014°38'1 0.5
2020-Sep-21 14:00N 53°25' E 014°37'0 0.0
2020-Sep-21 10:30N 53°25' E 014°37'0 0.0
2020-Sep-21 08:30N 53°25' E 014°37'0 0.0
2020-Sep-21 07:30N 53°25' E 014°37'2 0.8
2020-Sep-21 05:30N 53°24' E 014°39'1 0.1
2020-Sep-20 14:30N 53°25' E 014°37'0 0.1
2020-Sep-20 12:31N 53°25' E 014°37'0 0.1
2020-Sep-20 12:01N 53°25' E 014°37'0 0.0
2020-Sep-20 11:30N 53°25' E 014°37'0 0.0
2020-Sep-20 10:30N 53°25' E 014°37'0 0.0
2020-Sep-20 08:30N 53°25' E 014°37'0 0.0
2020-Sep-20 07:01N 53°25' E 014°37'0 0.0
2020-Sep-20 06:00N 53°25' E 014°37'1 0.1
2020-Sep-19 16:30N 53°24' E 014°39'2 0.6
2020-Sep-19 14:00N 53°25' E 014°37'0 0.0
2020-Sep-19 11:00N 53°25' E 014°37'0 0.0
2020-Sep-19 10:00N 53°25' E 014°37'1 0.5
2020-Sep-19 07:30N 53°25' E 014°38'0 0.6
2020-Sep-19 07:00N 53°24' E 014°39'2 0.1
2020-Sep-18 13:30N 53°26' E 014°36'1 0.2
2020-Sep-18 10:30N 53°25' E 014°37'0 0.0
2020-Sep-18 07:30N 53°25' E 014°37'0 0.0
2020-Sep-18 07:00N 53°25' E 014°37'1 0.0
2020-Sep-17 12:00N 53°26' E 014°36'2 0.6
2020-Sep-17 08:01N 53°24' E 014°38'0 0.0
2020-Sep-17 07:30N 53°24' E 014°38'0 0.0
2020-Sep-17 07:01N 53°24' E 014°38'0 0.0
2020-Sep-17 06:31N 53°24' E 014°38'0 0.0
2020-Sep-16 17:00N 53°24' E 014°38'0 0.0
2020-Sep-16 16:30N 53°24' E 014°38'2 0.5
2020-Sep-16 12:00N 53°26' E 014°36'0 0.0
2020-Sep-16 07:00N 53°26' E 014°36'2 1.1
2020-Sep-16 05:00N 53°24' E 014°38'2 0.2
2020-Sep-15 14:00N 53°26' E 014°36'0 0.0
2020-Sep-15 13:30N 53°26' E 014°36'0 0.0
2020-Sep-15 12:00N 53°26' E 014°36'0 0.0
2020-Sep-15 09:30N 53°26' E 014°36'0 0.0
2020-Sep-15 07:30N 53°26' E 014°36'2 1.1
2020-Sep-15 05:30N 53°24' E 014°39'3 0.2
2020-Sep-14 14:30N 53°26' E 014°36'0 0.0
2020-Sep-14 12:30N 53°26' E 014°36'0 0.0
2020-Sep-14 10:00N 53°26' E 014°36'  
Track history (hours):
 
Tides and Currents Weather Stations Pressure Air Temp Water Temp Dewpoint Dewpoint Depression Visibility Wind Speed Wind Dir Waves Ship Positions

Oceanographic research ship Oceanograf 2 (Poland)

Detailed information on ship capabilities available from University of Delaware's Ocean Information Center.

Last reported at 2020-Sep-24 07:30 UTC. Time now 2020-Sep-24 08:45 UTC.
Position N 53°26' E 014°36'.

Length 23 m; draft 1.9 m.

Type: Towing. MMSI: 261014410.

Date/timePositionNaut miles runAvg speedWind from/ knotsBaromVisibWave heightAir tempDewpointWater temp
2020-Sep-24 07:30N 53°26' E 014°36'0 0.0
2020-Sep-24 06:30N 53°26' E 014°36'2 2.0
2020-Sep-24 05:30N 53°24' E 014°39'2 0.1
2020-Sep-23 15:00N 53°25' E 014°36'0 0.0
2020-Sep-23 14:00N 53°25' E 014°36'0 0.0
2020-Sep-23 12:00N 53°25' E 014°36'0 0.0
2020-Sep-23 11:00N 53°25' E 014°36'0 0.0
2020-Sep-23 10:30N 53°25' E 014°36'2 0.1
2020-Sep-22 16:31N 53°24' E 014°39'1 2.8
2020-Sep-22 16:00N 53°25' E 014°37'1 1.2
2020-Sep-22 15:30N 53°26' E 014°36'0 0.0
2020-Sep-22 12:00N 53°25' E 014°36'0 0.0
2020-Sep-22 11:00N 53°25' E 014°36'0 0.0
2020-Sep-22 10:00N 53°26' E 014°36'1 0.5
2020-Sep-22 08:00N 53°26' E 014°36'0 1.0
2020-Sep-22 07:30N 53°27' E 014°36'0 0.0
2020-Sep-22 07:00N 53°27' E 014°36'4 0.3
2020-Sep-21 17:30N 53°24' E 014°38'1 0.5
2020-Sep-21 16:00N 53°25' E 014°38'1 0.5
2020-Sep-21 14:00N 53°25' E 014°37'0 0.0
2020-Sep-21 10:30N 53°25' E 014°37'0 0.0
2020-Sep-21 08:30N 53°25' E 014°37'0 0.0
2020-Sep-21 07:30N 53°25' E 014°37'2 0.8
2020-Sep-21 05:30N 53°24' E 014°39'1 0.1
2020-Sep-20 14:30N 53°25' E 014°37'0 0.1
2020-Sep-20 12:31N 53°25' E 014°37'0 0.1
2020-Sep-20 12:01N 53°25' E 014°37'0 0.0
2020-Sep-20 11:30N 53°25' E 014°37'0 0.0
2020-Sep-20 10:30N 53°25' E 014°37'0 0.0
2020-Sep-20 08:30N 53°25' E 014°37'0 0.0
2020-Sep-20 07:01N 53°25' E 014°37'0 0.0
2020-Sep-20 06:00N 53°25' E 014°37'1 0.1
2020-Sep-19 16:30N 53°24' E 014°39'2 0.6
2020-Sep-19 14:00N 53°25' E 014°37'0 0.0
2020-Sep-19 11:00N 53°25' E 014°37'0 0.0
2020-Sep-19 10:00N 53°25' E 014°37'1 0.5
2020-Sep-19 07:30N 53°25' E 014°38'0 0.6
2020-Sep-19 07:00N 53°24' E 014°39'2 0.1
2020-Sep-18 13:30N 53°26' E 014°36'1 0.2
2020-Sep-18 10:30N 53°25' E 014°37'0 0.0
2020-Sep-18 07:30N 53°25' E 014°37'0 0.0
2020-Sep-18 07:00N 53°25' E 014°37'1 0.0
2020-Sep-17 12:00N 53°26' E 014°36'2 0.6
2020-Sep-17 08:01N 53°24' E 014°38'0 0.0
2020-Sep-17 07:30N 53°24' E 014°38'0 0.0
2020-Sep-17 07:01N 53°24' E 014°38'0 0.0
2020-Sep-17 06:31N 53°24' E 014°38'0 0.0
2020-Sep-16 17:00N 53°24' E 014°38'0 0.0
2020-Sep-16 16:30N 53°24' E 014°38'2 0.5
2020-Sep-16 12:00N 53°26' E 014°36'0 0.0
2020-Sep-16 07:00N 53°26' E 014°36'2 1.1
2020-Sep-16 05:00N 53°24' E 014°38'2 0.2
2020-Sep-15 14:00N 53°26' E 014°36'0 0.0
2020-Sep-15 13:30N 53°26' E 014°36'0 0.0
2020-Sep-15 12:00N 53°26' E 014°36'0 0.0
2020-Sep-15 09:30N 53°26' E 014°36'0 0.0
2020-Sep-15 07:30N 53°26' E 014°36'2 1.1
2020-Sep-15 05:30N 53°24' E 014°39'3 0.2
2020-Sep-14 14:30N 53°26' E 014°36'0 0.0
2020-Sep-14 12:30N 53°26' E 014°36'0 0.0
2020-Sep-14 10:00N 53°26' E 014°36'  

Dump ship's entire track history